Huvudsida
METAR-TAF:

METAR-TAF

Flygplatser :

Labuan, Malaysia

latitud: 05-18N, longitud: 115-15E, höjd: 30 m

Aktuellt väderrapport

Denna rapport gjordes för 21 minuter sedan, klockan 16:00 UTC
Stilla vind
Temperatur 26°C
Fuktighet 94%
Tryck 1011 hPa
Sikt 10 km eller mer
Få moln på en höjd av 1300 ft
Spridda moln på en höjd av 14000 ft
Brutna moln på en höjd av 29000 ft

METAR: WBKL 241600Z 00000KT 9999 FEW013 SCT140 BKN290 26/25 Q1011

Tid: 00:21 (16:21 UTC)

Väderprognos

Denna rapport gjordes för 5 timmar och 21 minuter sedan, klockan 11:00 UTC
Prognos gäller från 24 kl. 12 UTC till 25 kl. 12 UTC
Vind 3 kt varierande vindriktning
Sikt 10 km eller mer
Få moln på en höjd av 1200 ft

TAF: WBKL 241100Z 2412/2512 VRB03KT 9999 FEW012

Aktuella väderrapporter och prognoser från 4000 flygplatser (METAR- och TAF-rapporter).

De tillgängliga stationerna syns som gula och röda prickar på kartan.

För musen över prickarna för att se namnen på stationerna.

Klicka sedan för att få väderrapporter och prognoser.

För att ändra kartan: Klicka på de gröna knapparna med ett svart kors på för att zooma in; den gröna knappen med ett streck på för att zooma ut; eller på de gröna pilarna för angränsande kartor.


METAR-TAF: